createdAt,value
2018-04-16T00:00:11.627Z,100477
2018-04-16T00:05:15.197Z,100486
2018-04-16T00:10:18.387Z,100486
2018-04-16T00:15:22.323Z,100484
2018-04-16T00:20:26.639Z,100485
2018-04-16T00:25:29.848Z,100485
2018-04-16T00:30:33.452Z,100487
2018-04-16T00:35:42.102Z,100489
2018-04-16T00:40:50.739Z,100494
2018-04-16T00:45:59.605Z,100491
2018-04-16T00:51:09.523Z,100495
2018-04-16T00:56:18.995Z,100499
2018-04-16T01:01:27.712Z,100495
2018-04-16T01:06:37.211Z,100498
2018-04-16T01:11:45.860Z,100503
2018-04-16T01:16:55.357Z,100508
2018-04-16T01:22:04.352Z,100501
2018-04-16T01:27:13.815Z,100508
2018-04-16T01:32:22.935Z,100518
2018-04-16T01:37:31.643Z,100521
2018-04-16T01:42:40.444Z,100521
2018-04-16T01:47:49.484Z,100522
2018-04-16T01:52:58.993Z,100523
2018-04-16T01:58:07.665Z,100522
2018-04-16T02:03:17.495Z,100520
2018-04-16T02:08:26.402Z,100506
2018-04-16T02:13:36.243Z,100508
2018-04-16T02:18:44.985Z,100514
2018-04-16T02:23:53.547Z,100510
2018-04-16T02:29:02.690Z,100507
2018-04-16T02:34:12.341Z,100512
2018-04-16T02:39:21.843Z,100513
2018-04-16T02:44:30.561Z,100514
2018-04-16T02:49:39.285Z,100516
2018-04-16T02:54:48.371Z,100524
2018-04-16T02:59:56.904Z,100525
2018-04-16T03:05:06.081Z,100527
2018-04-16T03:10:14.656Z,100529
2018-04-16T03:15:23.608Z,100535
2018-04-16T03:20:33.440Z,100541
2018-04-16T03:25:42.066Z,100541
2018-04-16T03:30:51.580Z,100540
2018-04-16T03:36:00.180Z,100555
2018-04-16T03:41:08.847Z,100558
2018-04-16T03:52:13.674Z,100557
2018-04-16T03:57:16.783Z,100566
2018-04-16T04:02:19.916Z,100573
2018-04-16T04:07:23.088Z,100578
2018-04-16T04:12:26.283Z,100591
2018-04-16T04:17:29.509Z,100606
2018-04-16T04:22:51.707Z,100604
2018-04-16T04:28:12.701Z,100604
2018-04-16T04:33:15.919Z,100605
2018-04-16T04:38:19.455Z,100615
2018-04-16T04:43:22.676Z,100618
2018-04-16T04:48:27.106Z,100622
2018-04-16T04:53:30.250Z,100617
2018-04-16T04:58:33.771Z,100618
2018-04-16T05:03:36.951Z,100622
2018-04-16T05:08:40.834Z,100632
2018-04-16T05:13:45.107Z,100627
2018-04-16T05:18:48.174Z,100627
2018-04-16T05:23:52.011Z,100630
2018-04-16T05:28:55.110Z,100637
2018-04-16T05:33:58.202Z,100640
2018-04-16T05:39:01.287Z,100655
2018-04-16T05:44:05.891Z,100660
2018-04-16T05:49:08.968Z,100670
2018-04-16T05:54:13.400Z,100679
2018-04-16T05:59:18.241Z,100689
2018-04-16T06:04:21.342Z,100688
2018-04-16T06:09:25.605Z,100703
2018-04-16T06:14:30.015Z,100697
2018-04-16T06:19:33.106Z,100705
2018-04-16T06:24:37.729Z,100709
2018-04-16T06:29:40.809Z,100720
2018-04-16T06:34:45.265Z,100718
2018-04-16T06:39:48.350Z,100724
2018-04-16T06:44:52.952Z,100730
2018-04-16T06:49:57.405Z,100734
2018-04-16T06:55:00.882Z,100740
2018-04-16T07:00:04.029Z,100743
2018-04-16T07:05:07.128Z,100751
2018-04-16T07:10:11.000Z,100745
2018-04-16T07:15:14.817Z,100755
2018-04-16T07:20:17.900Z,100752
2018-04-16T07:25:23.035Z,100754
2018-04-16T07:30:26.809Z,100757
2018-04-16T07:35:29.886Z,100763
2018-04-16T07:40:34.346Z,100776
2018-04-16T07:45:37.825Z,100774
2018-04-16T07:50:41.622Z,100791
2018-04-16T07:55:46.912Z,100783
2018-04-16T08:00:50.009Z,100782
2018-04-16T08:05:54.233Z,100789
2018-04-16T08:10:58.686Z,100792
2018-04-16T08:16:02.194Z,100797
2018-04-16T08:21:06.158Z,100827
2018-04-16T08:26:10.983Z,100808
2018-04-16T08:31:14.074Z,100822
2018-04-16T08:36:18.906Z,100816
2018-04-16T08:41:22.456Z,100809
2018-04-16T08:46:26.894Z,100821
2018-04-16T08:51:30.810Z,100815
2018-04-16T08:56:35.245Z,100812
2018-04-16T09:01:39.523Z,100820
2018-04-16T09:06:44.103Z,100823
2018-04-16T09:11:47.641Z,100836
2018-04-16T09:16:52.970Z,100832
2018-04-16T09:21:56.448Z,100842
2018-04-16T09:27:00.320Z,100848
2018-04-16T09:32:03.397Z,100851
2018-04-16T09:37:07.618Z,100862
2018-04-16T09:42:11.462Z,100875
2018-04-16T09:47:15.306Z,100872
2018-04-16T09:52:19.533Z,100867
2018-04-16T09:57:23.026Z,100868
2018-04-16T10:02:27.610Z,100880
2018-04-16T10:07:32.040Z,100874
2018-04-16T10:12:35.890Z,100872
2018-04-16T10:17:40.350Z,100871
2018-04-16T10:22:45.739Z,100865
2018-04-16T10:27:48.834Z,100866
2018-04-16T10:32:53.047Z,100867
2018-04-16T10:37:56.890Z,100863
2018-04-16T10:43:01.110Z,100864
2018-04-16T10:48:04.205Z,100861
2018-04-16T10:53:07.289Z,100863
2018-04-16T10:58:11.733Z,100865
2018-04-16T11:03:15.953Z,100869
2018-04-16T11:08:19.496Z,100867
2018-04-16T11:13:23.698Z,100865
2018-04-16T11:18:27.931Z,100859
2018-04-16T11:23:31.010Z,100853
2018-04-16T11:28:34.934Z,100860
2018-04-16T11:33:39.119Z,100863
2018-04-16T11:38:42.978Z,100863
2018-04-16T11:43:47.414Z,100869
2018-04-16T11:48:50.910Z,100879
2018-04-16T11:53:55.338Z,100883
2018-04-16T11:58:58.431Z,100892
2018-04-16T12:04:02.885Z,100890
2018-04-16T12:09:06.673Z,100887
2018-04-16T12:14:10.159Z,100893
2018-04-16T12:19:14.020Z,100901
2018-04-16T12:24:17.130Z,100895
2018-04-16T12:29:20.281Z,100897
2018-04-16T12:34:24.118Z,100893
2018-04-16T12:39:28.338Z,100896
2018-04-16T12:44:32.177Z,100888
2018-04-16T12:49:36.598Z,100885
2018-04-16T12:54:40.666Z,100895
2018-04-16T12:59:45.128Z,100896
2018-04-16T13:04:48.202Z,100906
2018-04-16T13:09:51.286Z,100907
2018-04-16T13:14:55.134Z,100913
2018-04-16T13:20:00.238Z,100925
2018-04-16T13:25:04.128Z,100931
2018-04-16T13:30:07.618Z,100929
2018-04-16T13:35:11.106Z,100925
2018-04-16T13:40:14.577Z,100924
2018-04-16T13:45:18.054Z,100928
2018-04-16T13:50:22.274Z,100929
2018-04-16T13:55:26.747Z,100930
2018-04-16T14:00:30.214Z,100938
2018-04-16T14:05:34.654Z,100943
2018-04-16T14:10:39.294Z,100940
2018-04-16T14:15:42.371Z,100945
2018-04-16T14:20:45.487Z,100947
2018-04-16T14:25:48.580Z,100951
2018-04-16T14:30:51.654Z,100947
2018-04-16T14:35:55.912Z,100946
2018-04-16T14:41:00.104Z,100960
2018-04-16T14:46:03.970Z,100972
2018-04-16T14:51:08.185Z,100977
2018-04-16T14:56:11.691Z,100974
2018-04-16T15:01:15.535Z,100976
2018-04-16T15:06:19.382Z,100980
2018-04-16T15:11:23.806Z,100981
2018-04-16T15:16:26.883Z,100973
2018-04-16T15:21:29.986Z,100969
2018-04-16T15:26:33.062Z,100971
2018-04-16T15:31:36.559Z,100980
2018-04-16T15:36:40.421Z,100976
2018-04-16T15:41:43.508Z,100984
2018-04-16T15:46:47.745Z,100990
2018-04-16T15:51:51.587Z,100984
2018-04-16T15:56:54.671Z,100984
2018-04-16T16:01:57.763Z,100988
2018-04-16T16:07:00.847Z,100979
2018-04-16T16:12:05.278Z,100983
2018-04-16T16:17:09.494Z,100984
2018-04-16T16:22:13.364Z,100987
2018-04-16T16:27:17.813Z,101003
2018-04-16T16:32:20.890Z,101010
2018-04-16T16:37:25.323Z,101006
2018-04-16T16:42:29.919Z,101014
2018-04-16T16:47:33.767Z,101017
2018-04-16T16:52:36.846Z,101019
2018-04-16T16:57:39.938Z,101022
2018-04-16T17:02:44.390Z,101025
2018-04-16T17:07:48.239Z,101032
2018-04-16T17:12:52.669Z,101033
2018-04-16T17:17:55.754Z,101035
2018-04-16T17:22:58.855Z,101035
2018-04-16T17:28:02.056Z,101046
2018-04-16T17:33:05.929Z,101056
2018-04-16T17:38:17.822Z,101067
2018-04-16T17:43:21.454Z,101071
2018-04-16T17:48:26.971Z,101078
2018-04-16T17:53:30.883Z,101093
2018-04-16T17:58:35.888Z,101092
2018-04-16T18:03:39.947Z,101102
2018-04-16T18:08:43.179Z,101109
2018-04-16T18:13:48.320Z,101114
2018-04-16T18:18:52.467Z,101122
2018-04-16T18:23:57.959Z,101127
2018-04-16T18:29:01.031Z,101136
2018-04-16T18:34:04.884Z,101142
2018-04-16T18:39:12.754Z,101150
2018-04-16T18:44:15.978Z,101159
2018-04-16T18:49:19.483Z,101174
2018-04-16T18:54:23.515Z,101181
2018-04-16T18:59:27.701Z,101191
2018-04-16T19:04:30.902Z,101199
2018-04-16T19:09:34.101Z,101206
2018-04-16T19:14:37.367Z,101214
2018-04-16T19:19:40.643Z,101234
2018-04-16T19:24:45.420Z,101239
2018-04-16T19:29:49.001Z,101241
2018-04-16T19:34:58.343Z,101248
2018-04-16T19:40:01.541Z,101253
2018-04-16T19:45:05.120Z,101268
2018-04-16T19:50:09.125Z,101280
2018-04-16T19:55:12.270Z,101285
2018-04-16T20:00:15.904Z,101297
2018-04-16T20:05:19.476Z,101301
2018-04-16T20:10:24.582Z,101303
2018-04-16T20:15:27.769Z,101309
2018-04-16T20:20:31.710Z,101314
2018-04-16T20:25:34.888Z,101323
2018-04-16T20:30:38.948Z,101331
2018-04-16T20:35:42.912Z,101335
2018-04-16T20:40:46.223Z,101342
2018-04-16T20:45:49.421Z,101342
2018-04-16T20:50:53.342Z,101343
2018-04-16T20:55:57.295Z,101347
2018-04-16T21:01:00.468Z,101352
2018-04-16T21:06:20.906Z,101353
2018-04-16T21:11:25.230Z,101354
2018-04-16T21:16:29.883Z,101361
2018-04-16T21:21:33.058Z,101364
2018-04-16T21:26:36.243Z,101374
2018-04-16T21:31:39.427Z,101380
2018-04-16T21:36:42.638Z,101388
2018-04-16T21:42:01.207Z,101393
2018-04-16T21:47:04.421Z,101395
2018-04-16T21:52:07.546Z,101398
2018-04-16T21:57:11.118Z,101401
2018-04-16T22:02:14.978Z,101405
2018-04-16T22:07:18.066Z,101408
2018-04-16T22:12:21.147Z,101408
2018-04-16T22:17:24.991Z,101419
2018-04-16T22:22:28.090Z,101418
2018-04-16T22:27:32.306Z,101425
2018-04-16T22:32:35.403Z,101434
2018-04-16T22:37:38.590Z,101439
2018-04-16T22:42:41.813Z,101445
2018-04-16T22:47:44.939Z,101449
2018-04-16T22:52:48.880Z,101452
2018-04-16T22:57:52.844Z,101463
2018-04-16T23:02:55.995Z,101465
2018-04-16T23:07:59.177Z,101478
2018-04-16T23:13:02.319Z,101478
2018-04-16T23:18:05.487Z,101484
2018-04-16T23:23:08.671Z,101491
2018-04-16T23:28:12.232Z,101494
2018-04-16T23:33:15.403Z,101497
2018-04-16T23:38:18.563Z,101501
2018-04-16T23:43:22.863Z,101508
2018-04-16T23:48:26.468Z,101515
2018-04-16T23:53:30.435Z,101519
2018-04-16T23:58:33.583Z,101510
